Latest Coastal Weather Observations for Horn Island

IDQ60701

Issued at 8:52 am EST Thursday 28 July 2016 (issued every 10 minutes, with the page automatically refreshed every 10 minutes)

About coastal observations | Map of coastal stations | Coastal observations for QLD | Marine services | Other Formats
Station Details ID: 027058 Name: HORN ISLAND Lat: -10.58 Lon: 142.29 Height: 4.0 m
Data from the previous 72 hours. | See also: Recent months at Horn Island
Date/Time
EST
Temp
°C
Wind Pressure Rain since
9am
mm
Weather Cloud Vis
km
Sea
Height
m
Swell
Dir  Spd
kts
Gust
kts
hPa Trend Height
m
Period
s
Dir
28/08:30am 26.3 SSE 11 15 1012.4 - 1.0 - Partly cloudy 10 - - - -
28/08:00am 25.7 SSE 10 15 1012.3 - 1.0 - Partly cloudy 10 - - - -
28/07:30am 25.5 SSE 11 19 1011.9 - 1.0 - Partly cloudy 10 - - - -
28/07:00am 25.4 SSE 10 16 1011.4 - 1.0 - Partly cloudy 10 - - - -
28/06:30am 25.1 SSE 10 15 1011.2 - 1.0 - Partly cloudy 10 - - - -
28/06:00am 24.7 SSE 8 13 1010.9 - 1.0 - Partly cloudy 10 - - - -
28/05:30am 24.7 SSE 10 13 1010.8 - 1.0 - Partly cloudy 10 - - - -
28/05:00am 24.6 SSE 11 14 1010.9 - 1.0 - Partly cloudy 10 - - - -
28/04:30am 24.5 SSE 11 16 1011.0 - 1.0 - Partly cloudy 10 - - - -
28/04:00am 24.5 SSE 12 17 1011.1 - 1.0 - - 10 - - - -
28/03:30am 24.4 SSE 10 14 1011.3 - 1.0 - Partly cloudy 10 - - - -
28/03:00am 24.4 SSE 9 17 1011.3 - 1.0 - Mostly clear 10 - - - -
28/02:45am 24.4 SSE 12 17 1011.3 - 1.0 - Partly cloudy 10 - - - -
28/02:30am 24.4 SSE 11 16 1011.5 - 1.0 - Partly cloudy 10 - - - -
28/02:00am 24.5 SSE 12 19 1011.9 - 1.0 - Partly cloudy 10 - - - -
28/01:30am 24.4 SSE 11 16 1012.1 - 1.0 - Partly cloudy 10 - - - -
28/01:00am 24.3 SSE 11 18 1012.6 - 1.0 - Partly cloudy 10 - - - -
28/12:30am 24.2 SSE 11 15 1012.8 - 1.0 - Partly cloudy 10 - - - -
28/12:00am 24.3 SSE 13 19 1013.0 - 1.0 - Cloudy 6 - - - -
 
Date/Time
EST
Temp
°C
Wind Pressure Rain since
9am
mm
Weather Cloud Vis
km
Sea
Height
m
Swell
Dir  Spd
kts
Gust
kts
hPa Trend Height
m
Period
s
Dir
27/11:30pm 24.3 SSE 10 17 1013.1 - 1.0 - Partly cloudy 10 - - - -
27/11:12pm 24.2 SSE 11 17 1012.9 - 1.0 - Partly cloudy 10 - - - -
27/11:00pm 24.2 SSE 10 15 1013.1 - 1.0 - Partly cloudy 5 - - - -
27/10:41pm 24.5 SSE 12 20 1013.3 - 0.4 - Partly cloudy 5 - - - -
27/10:30pm 24.5 SSE 12 19 1013.2 - 0.4 - Partly cloudy 10 - - - -
27/10:13pm 24.5 SSE 14 20 1013.2 - 0.4 - Cloudy 5 - - - -
27/10:00pm 24.6 SSE 13 19 1013.2 - 0.4 - Cloudy 10 - - - -
27/09:41pm 24.4 SSE 12 16 1013.3 - 0.4 - Partly cloudy 10 - - - -
27/09:30pm 24.3 SSE 13 20 1013.3 - 0.4 - Partly cloudy 10 - - - -
27/09:27pm 24.3 SSE 12 16 1013.3 - 0.4 - Partly cloudy 10 - - - -
27/09:11pm 24.3 SSE 13 18 1013.2 - 0.4 - Partly cloudy 7 - - - -
27/09:10pm 24.3 SSE 13 18 1013.3 - 0.4 - Partly cloudy 7 - - - -
27/09:06pm 24.3 SSE 13 18 1013.3 - 0.4 - Partly cloudy 8 - - - -
27/09:00pm 24.3 SSE 12 17 1013.2 - 0.4 - Cloudy 10 - - - -
27/08:50pm 24.2 SSE 10 17 1013.3 - 0.4 - Partly cloudy 5 - - - -
27/08:39pm 24.3 SSE 11 17 1013.3 - 0.4 - Partly cloudy 7 - - - -
27/08:30pm 24.3 SSE 12 20 1013.1 - 0.4 - Partly cloudy 6 - - - -
27/08:18pm 24.4 SSE 13 19 1013.0 - 0.4 - Partly cloudy 4 - - - -
27/08:08pm 24.8 SSE 12 16 1012.8 - 0.4 - Partly cloudy 5 - - - -
27/08:00pm 25.4 SSE 14 21 1012.7 - 0.4 - Partly cloudy 10 - - - -
27/07:30pm 25.6 SSE 13 19 1012.1 - 0.4 - Partly cloudy 10 - - - -
27/07:00pm 25.8 SSE 13 19 1011.7 - 0.4 - Partly cloudy 10 - - - -
27/06:30pm 25.9 SSE 15 22 1011.3 - 0.4 - Partly cloudy 10 - - - -
27/06:00pm 25.7 SSE 11 15 1011.1 - 0.4 - Cloudy 10 - - - -
27/05:30pm 27.8 SSE 11 18 1010.7 - 0.4 - Partly cloudy 10 - - - -
27/05:00pm 27.6 SE 13 21 1010.4 - 0.4 - Partly cloudy 10 - - - -
27/04:30pm 28.6 SE 13 19 1010.1 - 0.4 - Partly cloudy - - - - -
27/04:00pm 28.4 SSE 10 21 1010.1 - 0.4 - Partly cloudy - - - - -
27/03:30pm 27.9 SSE 10 15 1009.9 - 0.4 - Partly cloudy 10 - - - -
27/03:00pm 27.1 SE 10 15 1010.2 - 0.4 - Cloudy 10 - - - -
27/02:30pm 25.8 SSE 9 13 1010.7 - 0.4 - Partly cloudy 10 - - - -
27/02:00pm 25.4 SSE 10 14 1011.3 - 0.4 - Partly cloudy 10 - - - -
27/01:55pm 25.1 SSE 10 14 1011.4 - 0.4 - Partly cloudy 10 - - - -
27/01:30pm 25.1 SSE 11 14 1011.7 - 0.2 - Partly cloudy 3 - - - -
27/01:00pm 25.7 SE 15 21 1012.0 - 0.0 - Partly cloudy 5 - - - -
27/12:55pm 25.7 SE 15 22 1012.1 - 0.0 - Partly cloudy 5 - - - -
27/12:30pm 26.7 ESE 15 26 1012.2 - 0.0 - Partly cloudy 10 - - - -
27/12:29pm 27.0 ESE 15 25 1012.2 - 0.0 - Partly cloudy 10 - - - -
27/12:00pm 29.3 SE 12 16 1012.3 - 0.0 - Cloudy 10 - - - -
27/11:30am 29.3 SE 14 18 1012.4 - 0.0 - Partly cloudy 10 - - - -
27/11:00am 29.1 SE 13 19 1012.6 - 0.0 - Partly cloudy - - - - -
27/10:30am 27.3 SE 11 19 1012.7 - 0.0 - Partly cloudy 10 - - - -
27/10:00am 27.2 SE 11 17 1012.9 - 0.0 - Cloudy 10 - - - -
27/09:30am 26.7 SSE 11 16 1013.0 - 0.0 - Partly cloudy 10 - - - -
27/09:00am 26.3 SSE 13 19 1012.9 - 0.0 - Cloudy 10 - - - -
27/08:30am 26.0 SSE 11 16 1012.7 - 0.0 - Partly cloudy 10 - - - -
27/08:00am 25.8 SSE 10 16 1012.3 - 0.0 - Partly cloudy 10 - - - -
27/07:30am 25.0 SSE 11 15 1011.9 - 0.0 - Partly cloudy 10 - - - -
27/07:00am 24.9 SSE 11 15 1011.7 - 0.0 - - 10 - - - -
27/06:30am 25.0 SSE 10 16 1011.3 - 0.0 - Partly cloudy 10 - - - -
27/06:00am 25.0 SSE 10 15 1011.3 - 0.0 - Partly cloudy 10 - - - -
27/05:30am 24.7 SSE 9 14 1011.2 - 0.0 - Partly cloudy 10 - - - -
27/05:00am 24.6 SSE 10 14 1011.2 - 0.0 - Partly cloudy 10 - - - -
27/04:30am 24.7 SSE 8 11 1011.2 - 0.0 - Partly cloudy 10 - - - -
27/04:00am 24.9 SSE 10 13 1011.1 - 0.0 - Partly cloudy 10 - - - -
27/03:30am 25.0 SE 9 15 1011.1 - 0.0 - - 10 - - - -
27/03:00am 24.9 SSE 9 13 1011.3 - 0.0 - - 10 - - - -
27/02:30am 24.7 SSE 8 12 1011.5 - 0.0 - - 10 - - - -
27/02:00am 24.6 SSE 8 11 1011.7 - 0.0 - - 10 - - - -
27/01:30am 24.7 SSE 8 11 1011.9 - 0.0 - - 10 - - - -
27/01:00am 24.8 SSE 10 15 1012.1 - 0.0 - - 10 - - - -
27/12:30am 24.7 SSE 9 13 1012.3 - 0.0 - - 10 - - - -
27/12:00am 24.9 SSE 9 13 1012.5 - 0.0 - - 10 - - - -
 
Date/Time
EST
Temp
°C
Wind Pressure Rain since
9am
mm
Weather Cloud Vis
km
Sea
Height
m
Swell
Dir  Spd
kts
Gust
kts
hPa Trend Height
m
Period
s
Dir
26/11:30pm 24.9 SSE 9 13 1012.5 - 0.0 - - 10 - - - -
26/11:00pm 24.9 SSE 9 12 1012.7 - 0.0 - - 10 - - - -
26/10:30pm 25.1 SSE 9 12 1012.7 - 0.0 - - 10 - - - -
26/10:00pm 25.1 SSE 9 13 1012.6 - 0.0 - - 10 - - - -
26/09:30pm 25.3 SSE 9 13 1012.4 - 0.0 - - 10 - - - -
26/09:00pm 25.5 SSE 9 13 1012.2 - 0.0 - - 10 - - - -
26/08:30pm 25.6 SE 9 13 1012.2 - 0.0 - - 10 - - - -
26/08:00pm 25.8 SE 10 13 1011.8 - 0.0 - Partly cloudy 10 - - - -
26/07:30pm 26.1 SE 10 17 1011.4 - 0.0 - Partly cloudy 10 - - - -
26/07:00pm 26.3 SE 11 16 1011.2 - 0.0 - - 10 - - - -
26/06:30pm 26.5 SE 12 16 1010.8 - 0.0 - - - - - - -
26/06:00pm 27.1 ESE 15 19 1010.6 - 0.0 - - 10 - - - -
26/05:30pm 27.6 SE 15 19 1010.2 - 0.0 - - 10 - - - -
26/05:00pm 28.0 ESE 16 21 1009.9 - 0.0 - - 10 - - - -
26/04:30pm 28.3 ESE 17 23 1009.8 - 0.0 - - 10 - - - -
26/04:16pm 28.4 ESE 15 25 1009.8 - 0.0 - - 10 - - - -
26/04:00pm 28.6 ESE 17 23 1009.8 - 0.0 - - 10 - - - -
26/03:30pm 29.2 ESE 16 21 1009.9 - 0.0 - Partly cloudy 10 - - - -
26/03:00pm 28.8 ESE 15 24 1010.0 - 0.0 - Partly cloudy 10 - - - -
26/02:30pm 28.4 ESE 18 25 1010.3 - 0.0 - Partly cloudy 10 - - - -
26/02:00pm 29.3 ESE 17 23 1010.6 - 0.0 - Partly cloudy 10 - - - -
26/01:30pm 28.9 ESE 15 21 1011.0 - 0.0 - Partly cloudy 10 - - - -
26/01:18pm 28.4 ESE 15 25 1011.1 - 0.0 - Partly cloudy 10 - - - -
26/01:00pm 28.5 ESE 16 22 1011.4 - 0.0 - Cloudy 10 - - - -
26/12:30pm 29.1 ESE 16 22 1011.6 - 0.0 - Partly cloudy 10 - - - -
26/12:00pm 28.5 SE 15 21 1012.0 - 0.0 - Cloudy 10 - - - -
26/11:30am 28.1 SE 16 21 1012.2 - 0.0 - Cloudy 10 - - - -
26/11:00am 27.3 SE 12 19 1012.5 - 0.0 - Partly cloudy 10 - - - -
26/10:30am 27.8 SE 10 14 1012.5 - 0.0 - - - - - - -
26/10:00am 26.7 S 8 11 1012.7 - 0.0 - Partly cloudy 10 - - - -
26/09:30am 26.0 SSE 8 11 1012.8 - 0.0 - - 10 - - - -
26/09:00am 25.8 SSE 9 12 1012.8 - 0.0 - - 10 - - - -
26/08:30am 25.2 S 8 11 1012.4 - 0.0 - - 10 - - - -
26/08:00am 24.3 S 9 13 1012.1 - 0.0 - - 10 - - - -
26/07:30am 23.9 S 8 10 1011.8 - 0.0 - Partly cloudy 10 - - - -
26/07:00am 24.0 S 7 11 1011.5 - 0.0 - Partly cloudy 10 - - - -
26/06:30am 24.0 S 9 11 1011.3 - 0.0 - Partly cloudy 10 - - - -
26/06:00am 24.0 S 8 11 1011.1 - 0.0 - Mostly cloudy 10 - - - -
26/05:30am 24.0 S 8 10 1010.9 - 0.0 - Cloudy 10 - - - -
26/05:00am 24.1 S 7 9 1010.8 - 0.0 - Partly cloudy 10 - - - -
26/04:30am 24.2 SSE 9 11 1010.7 - 0.0 - Partly cloudy 10 - - - -
26/04:00am 24.4 S 8 12 1010.5 - 0.0 - Partly cloudy 10 - - - -
26/03:30am 24.6 SSE 8 11 1010.7 - 0.0 - Partly cloudy 10 - - - -
26/03:00am 24.3 S 6 8 1011.0 - 0.0 - Partly cloudy 10 - - - -
26/02:30am 24.3 S 8 12 1011.0 - 0.0 - - 10 - - - -
26/02:00am 24.4 S 7 10 1011.1 - 0.0 - Partly cloudy 10 - - - -
26/01:30am 24.7 SSE 8 12 1011.3 - 0.0 - Partly cloudy 10 - - - -
26/01:00am 24.8 SSE 8 12 1011.5 - 0.0 - Partly cloudy 10 - - - -
26/12:30am 25.1 SSE 9 14 1011.7 - 0.0 - Partly cloudy 10 - - - -
26/12:00am 25.1 SSE 8 13 1011.9 - 0.0 - Mostly cloudy 10 - - - -
 
Date/Time
EST
Temp
°C
Wind Pressure Rain since
9am
mm
Weather Cloud Vis
km
Sea
Height
m
Swell
Dir  Spd
kts
Gust
kts
hPa Trend Height
m
Period
s
Dir
25/11:30pm 25.3 SSE 10 14 1012.0 - 0.0 - Partly cloudy 10 - - - -
25/11:00pm 25.2 SSE 8 13 1012.2 - 0.0 - Partly cloudy 10 - - - -
25/10:30pm 25.3 SSE 9 13 1012.2 - 0.0 - Partly cloudy 10 - - - -
25/10:00pm 25.4 SSE 10 15 1012.2 - 0.0 - Partly cloudy 10 - - - -
25/09:30pm 25.5 SSE 10 15 1012.0 - 0.0 - - 10 - - - -
25/09:00pm 25.7 SE 12 17 1011.8 - 0.0 - - 10 - - - -
25/08:30pm 25.8 SE 13 19 1011.6 - 0.0 - - 10 - - - -
25/08:00pm 25.9 SE 13 20 1011.2 - 0.0 - - 10 - - - -
25/07:30pm 26.1 SE 13 21 1010.9 - 0.0 - - 10 - - - -
25/07:00pm 26.2 SE 14 19 1010.7 - 0.0 - - 10 - - - -
25/06:30pm 26.5 SE 14 21 1010.4 - 0.0 - - 10 - - - -
25/06:00pm 26.8 SE 16 23 1010.4 - 0.0 - - 10 - - - -
25/05:30pm 27.3 ESE 18 24 1010.1 - 0.0 - - 10 - - - -
25/05:00pm 27.8 ESE 18 24 1010.0 - 0.0 - - 10 - - - -
25/04:30pm 28.2 ESE 18 25 1009.8 - 0.0 - - 10 - - - -
25/04:00pm 28.7 ESE 19 24 1009.8 - 0.0 - - 10 - - - -
25/03:30pm 29.4 ESE 18 24 1009.8 - 0.0 - - 10 - - - -
25/03:00pm 29.4 ESE 19 25 1010.0 - 0.0 - - 10 - - - -
25/02:30pm 29.2 ESE 18 27 1010.3 - 0.0 - - 10 - - - -
25/02:00pm 29.8 ESE 20 26 1010.6 - 0.0 - - 10 - - - -
25/01:30pm 29.5 ESE 18 24 1011.0 - 0.0 - - 10 - - - -
25/01:00pm 29.6 SE 18 25 1011.4 - 0.0 - - 10 - - - -
25/12:30pm 29.3 ESE 18 23 1011.8 - 0.0 - - 10 - - - -
25/12:00pm 29.3 ESE 17 25 1012.2 - 0.0 - - 10 - - - -
25/11:30am 29.5 SE 17 22 1012.3 - 0.0 - - 10 - - - -
25/11:00am 28.9 ESE 17 23 1012.6 - 0.0 - - 10 - - - -
25/10:30am 28.5 ESE 17 25 1012.7 - 0.0 - - - - - - -
25/10:00am 28.8 SE 16 23 1012.7 - 0.0 - Partly cloudy - - - - -
25/09:30am 27.8 ESE 15 20 1012.6 - 0.0 - Partly cloudy - - - - -
25/09:00am 27.3 SE 13 21 1012.5 - 0.0 - Mostly clear 10 - - - -

Other Formats:

Comma delimited format used in spreadsheet applications
http://www.bom.gov.au/fwo/IDQ60701/IDQ60701.94174.axf

JavaScript Object Notation format (JSON) in row-major order
http://www.bom.gov.au/fwo/IDQ60701/IDQ60701.94174.json